createdAt,value
2018-07-14T00:00:43.926Z,56.70
2018-07-14T00:03:12.362Z,56.50
2018-07-14T00:05:40.772Z,56.60
2018-07-14T00:08:09.151Z,56.70
2018-07-14T00:10:37.687Z,56.90
2018-07-14T00:13:06.470Z,56.80
2018-07-14T00:15:34.878Z,57.00
2018-07-14T00:18:03.222Z,57.20
2018-07-14T00:23:00.509Z,57.70
2018-07-14T00:25:34.607Z,57.80
2018-07-14T00:28:02.954Z,58.20
2018-07-14T00:30:31.507Z,58.00
2018-07-14T00:32:59.874Z,58.00
2018-07-14T00:35:28.157Z,58.00
2018-07-14T00:37:56.536Z,57.90
2018-07-14T00:40:24.971Z,58.10
2018-07-14T00:45:21.554Z,58.30
2018-07-14T00:47:49.950Z,58.30
2018-07-14T00:50:18.398Z,58.40
2018-07-14T00:52:46.772Z,58.40
2018-07-14T00:55:15.133Z,58.50
2018-07-14T00:57:43.487Z,58.80
2018-07-14T01:00:11.788Z,58.80
2018-07-14T01:02:43.169Z,58.70
2018-07-14T01:07:39.796Z,59.00
2018-07-14T01:10:08.205Z,59.10
2018-07-14T01:12:36.516Z,59.50
2018-07-14T01:15:04.884Z,59.60
2018-07-14T01:17:33.230Z,59.70
2018-07-14T01:20:01.810Z,59.70
2018-07-14T01:22:30.102Z,59.80
2018-07-14T01:24:58.445Z,59.80
2018-07-14T01:27:26.774Z,59.90
2018-07-14T01:29:55.156Z,60.00
2018-07-14T01:32:23.481Z,59.50
2018-07-14T01:34:51.826Z,59.30
2018-07-14T01:37:20.167Z,59.50
2018-07-14T01:39:48.472Z,59.40
2018-07-14T01:42:16.867Z,59.60
2018-07-14T01:44:45.157Z,59.30
2018-07-14T01:47:13.515Z,59.10
2018-07-14T01:49:41.883Z,59.10
2018-07-14T01:52:10.237Z,59.70
2018-07-14T01:54:38.565Z,59.90
2018-07-14T01:57:06.908Z,60.10
2018-07-14T01:59:35.234Z,60.50
2018-07-14T02:02:03.629Z,60.70
2018-07-14T02:04:32.000Z,60.70
2018-07-14T02:07:00.318Z,60.70
2018-07-14T02:09:28.629Z,61.00
2018-07-14T02:11:56.946Z,61.90
2018-07-14T02:14:25.266Z,60.90
2018-07-14T02:16:53.569Z,60.60
2018-07-14T02:19:21.857Z,60.30
2018-07-14T02:21:50.394Z,60.20
2018-07-14T02:24:18.716Z,60.50
2018-07-14T02:26:47.020Z,60.90
2018-07-14T02:29:15.538Z,61.00
2018-07-14T02:31:43.892Z,61.10
2018-07-14T02:34:12.236Z,60.90
2018-07-14T02:36:40.710Z,60.90
2018-07-14T02:39:09.339Z,60.90
2018-07-14T02:44:06.182Z,61.70
2018-07-14T02:46:34.866Z,61.40
2018-07-14T02:49:03.574Z,61.80
2018-07-14T02:51:31.957Z,61.90
2018-07-14T02:54:00.317Z,61.80
2018-07-14T02:58:56.897Z,62.10
2018-07-14T03:01:25.225Z,61.60
2018-07-14T03:03:53.571Z,61.50
2018-07-14T03:06:21.934Z,61.60
2018-07-14T03:08:50.282Z,62.10
2018-07-14T03:11:18.622Z,62.40
2018-07-14T03:13:47.019Z,62.40
2018-07-14T03:16:15.346Z,62.50
2018-07-14T03:18:43.700Z,62.50
2018-07-14T03:21:12.092Z,62.30
2018-07-14T03:23:40.462Z,62.30
2018-07-14T03:26:08.794Z,62.30
2018-07-14T03:28:37.078Z,62.30
2018-07-14T03:33:33.678Z,62.30
2018-07-14T03:36:02.010Z,62.40
2018-07-14T03:40:58.625Z,62.40
2018-07-14T03:43:26.947Z,62.40
2018-07-14T03:48:23.599Z,63.60
2018-07-14T03:53:20.206Z,63.00
2018-07-14T03:55:48.576Z,62.80
2018-07-14T03:58:16.910Z,62.90
2018-07-14T04:00:45.381Z,63.10
2018-07-14T04:03:13.765Z,63.20
2018-07-14T04:05:42.095Z,63.50
2018-07-14T04:08:10.449Z,63.70
2018-07-14T04:10:38.828Z,63.30
2018-07-14T04:13:07.154Z,63.30
2018-07-14T04:15:35.458Z,63.50
2018-07-14T04:18:05.678Z,63.50
2018-07-14T04:20:35.481Z,63.50
2018-07-14T04:23:03.904Z,63.50
2018-07-14T04:25:32.564Z,63.80
2018-07-14T04:28:01.406Z,64.00
2018-07-14T04:30:29.799Z,64.40
2018-07-14T04:32:58.178Z,64.50
2018-07-14T04:35:26.596Z,64.60
2018-07-14T04:37:54.913Z,64.20
2018-07-14T04:40:23.278Z,64.20
2018-07-14T04:42:51.654Z,64.30
2018-07-14T04:45:20.011Z,64.50
2018-07-14T04:47:48.351Z,64.00
2018-07-14T04:50:16.701Z,64.10
2018-07-14T04:52:45.021Z,64.00
2018-07-14T04:55:13.441Z,63.80
2018-07-14T04:57:41.792Z,63.60
2018-07-14T05:00:10.222Z,63.30
2018-07-14T05:02:38.556Z,63.30
2018-07-14T05:05:06.930Z,63.10
2018-07-14T05:07:35.331Z,63.50
2018-07-14T05:10:03.837Z,62.70
2018-07-14T05:12:35.572Z,62.60
2018-07-14T05:15:04.106Z,62.70
2018-07-14T05:17:32.445Z,62.60
2018-07-14T05:20:00.747Z,62.90
2018-07-14T05:22:29.050Z,63.70
2018-07-14T05:24:57.364Z,63.50
2018-07-14T05:27:27.245Z,63.50
2018-07-14T05:29:56.167Z,63.40
2018-07-14T05:32:24.620Z,62.90
2018-07-14T05:34:52.989Z,63.30
2018-07-14T05:37:21.524Z,62.20
2018-07-14T05:39:50.044Z,61.60
2018-07-14T05:42:21.409Z,61.30
2018-07-14T05:44:49.705Z,60.40
2018-07-14T05:47:18.050Z,59.90
2018-07-14T05:49:46.363Z,60.20
2018-07-14T05:52:16.173Z,60.50
2018-07-14T05:57:13.237Z,60.80
2018-07-14T06:02:10.997Z,59.80
2018-07-14T06:04:39.314Z,59.60
2018-07-14T06:07:08.771Z,60.10
2018-07-14T06:09:44.195Z,59.30
2018-07-14T06:12:12.574Z,58.90
2018-07-14T06:14:40.957Z,59.60
2018-07-14T06:17:09.299Z,59.80
2018-07-14T06:19:37.784Z,59.50
2018-07-14T06:22:06.171Z,59.20
2018-07-14T06:24:34.579Z,59.00
2018-07-14T06:27:02.988Z,58.60
2018-07-14T06:29:34.607Z,58.90
2018-07-14T06:32:02.941Z,58.90
2018-07-14T06:34:32.366Z,58.70
2018-07-14T06:37:00.710Z,58.70
2018-07-14T06:39:29.110Z,58.90
2018-07-14T06:41:57.541Z,59.00
2018-07-14T06:44:25.892Z,59.20
2018-07-14T06:46:54.317Z,59.30
2018-07-14T06:51:50.978Z,59.30
2018-07-14T06:54:19.385Z,58.30
2018-07-14T06:59:16.109Z,57.90
2018-07-14T07:01:44.486Z,58.00
2018-07-14T07:04:12.805Z,57.50
2018-07-14T07:06:41.165Z,57.30
2018-07-14T07:09:09.557Z,57.20
2018-07-14T07:11:37.973Z,56.30
2018-07-14T07:14:06.554Z,56.00
2018-07-14T07:16:34.927Z,55.90
2018-07-14T07:19:03.313Z,55.60
2018-07-14T07:23:59.987Z,55.70
2018-07-14T07:26:28.333Z,55.90
2018-07-14T07:28:56.677Z,55.90
2018-07-14T07:31:25.032Z,55.10
2018-07-14T07:33:53.478Z,54.70
2018-07-14T07:38:50.081Z,54.20
2018-07-14T07:41:18.414Z,53.60
2018-07-14T07:43:46.851Z,53.60
2018-07-14T07:46:15.487Z,53.50
2018-07-14T07:48:43.846Z,53.20
2018-07-14T07:51:12.305Z,53.50
2018-07-14T07:53:41.703Z,52.90
2018-07-14T07:56:10.195Z,52.40
2018-07-14T07:58:38.615Z,53.00
2018-07-14T08:01:07.356Z,53.20
2018-07-14T08:03:35.845Z,52.20
2018-07-14T08:06:04.273Z,51.70
2018-07-14T08:08:32.699Z,51.30
2018-07-14T08:11:01.213Z,51.30
2018-07-14T08:13:29.533Z,51.40
2018-07-14T08:15:58.020Z,51.00
2018-07-14T08:18:26.512Z,51.20
2018-07-14T08:23:23.222Z,51.20
2018-07-14T08:25:51.561Z,50.80
2018-07-14T08:28:20.082Z,50.40
2018-07-14T08:30:49.255Z,49.50
2018-07-14T08:33:17.935Z,49.40
2018-07-14T08:35:46.431Z,48.40
2018-07-14T08:38:15.024Z,47.80
2018-07-14T08:40:43.641Z,47.80
2018-07-14T08:43:12.073Z,47.20
2018-07-14T08:45:40.891Z,47.10
2018-07-14T08:48:09.568Z,46.90
2018-07-14T08:50:38.063Z,46.50
2018-07-14T08:53:06.508Z,46.50
2018-07-14T08:55:34.867Z,46.80
2018-07-14T08:58:04.251Z,46.40
2018-07-14T09:00:32.691Z,45.90
2018-07-14T09:03:01.520Z,46.10
2018-07-14T09:05:29.942Z,46.10
2018-07-14T09:07:58.505Z,46.00
2018-07-14T09:10:26.970Z,44.60
2018-07-14T09:12:55.350Z,44.40
2018-07-14T09:15:23.807Z,45.00
2018-07-14T09:17:52.272Z,46.00
2018-07-14T09:20:20.776Z,45.80
2018-07-14T09:22:49.318Z,45.60
2018-07-14T09:25:17.925Z,45.90
2018-07-14T09:27:46.334Z,46.30
2018-07-14T09:30:14.767Z,46.10
2018-07-14T09:32:43.114Z,46.20
2018-07-14T09:35:11.532Z,46.50
2018-07-14T09:37:39.937Z,45.40
2018-07-14T09:40:08.433Z,45.00
2018-07-14T09:42:36.927Z,45.20
2018-07-14T09:45:05.387Z,44.00
2018-07-14T09:47:33.762Z,42.90
2018-07-14T09:50:02.189Z,43.10
2018-07-14T09:52:30.622Z,41.40
2018-07-14T09:54:59.000Z,42.70
2018-07-14T09:57:27.497Z,41.50
2018-07-14T09:59:55.918Z,41.60
2018-07-14T10:02:24.384Z,41.60
2018-07-14T10:04:52.804Z,41.50
2018-07-14T10:07:21.257Z,40.80
2018-07-14T10:09:49.645Z,41.00
2018-07-14T10:14:46.313Z,41.10
2018-07-14T10:17:14.774Z,41.20
2018-07-14T10:19:43.231Z,40.20
2018-07-14T10:22:11.728Z,40.20
2018-07-14T10:24:40.089Z,40.20
2018-07-14T10:27:08.522Z,40.20
2018-07-14T10:29:36.933Z,40.10
2018-07-14T10:32:05.402Z,40.30
2018-07-14T10:34:33.842Z,39.20
2018-07-14T10:37:02.177Z,39.90
2018-07-14T10:39:30.663Z,40.20
2018-07-14T10:41:59.066Z,38.80
2018-07-14T10:44:27.509Z,38.40
2018-07-14T10:46:55.946Z,38.30
2018-07-14T10:49:24.397Z,39.60
2018-07-14T10:51:52.804Z,38.50
2018-07-14T10:54:21.331Z,38.40
2018-07-14T10:56:49.857Z,38.10
2018-07-14T10:59:18.333Z,37.80
2018-07-14T11:01:46.786Z,37.50
2018-07-14T11:06:43.457Z,37.30
2018-07-14T11:09:11.890Z,37.80
2018-07-14T11:11:40.371Z,37.20
2018-07-14T11:14:08.724Z,36.40
2018-07-14T11:16:37.127Z,36.40
2018-07-14T11:19:05.481Z,36.70
2018-07-14T11:21:34.090Z,36.20
2018-07-14T11:24:02.488Z,36.70
2018-07-14T11:26:30.901Z,36.20
2018-07-14T11:28:59.235Z,36.60
2018-07-14T11:31:27.637Z,35.90
2018-07-14T11:33:56.055Z,35.90
2018-07-14T11:36:24.453Z,35.50
2018-07-14T11:38:52.850Z,35.20
2018-07-14T11:41:21.290Z,35.70
2018-07-14T11:43:49.657Z,35.70
2018-07-14T11:46:18.099Z,35.70
2018-07-14T11:51:14.853Z,35.70
2018-07-14T11:53:43.248Z,35.30
2018-07-14T11:56:11.709Z,35.70
2018-07-14T11:58:40.057Z,35.00
2018-07-14T12:01:08.472Z,35.60
2018-07-14T12:03:43.543Z,35.50
2018-07-14T12:06:11.916Z,34.60
2018-07-14T12:08:40.338Z,34.60
2018-07-14T12:11:09.201Z,35.00
2018-07-14T12:16:06.821Z,35.00
2018-07-14T12:21:03.586Z,35.60
2018-07-14T12:23:31.959Z,36.00
2018-07-14T12:26:00.320Z,35.40
2018-07-14T12:30:56.868Z,34.60
2018-07-14T12:33:25.254Z,34.60
2018-07-14T12:35:53.698Z,35.10
2018-07-14T12:38:22.076Z,34.70
2018-07-14T12:40:50.446Z,34.90
2018-07-14T12:43:18.915Z,36.00
2018-07-14T12:45:47.419Z,34.90
2018-07-14T12:48:15.917Z,35.70
2018-07-14T12:50:44.306Z,36.00
2018-07-14T12:55:40.961Z,34.90
2018-07-14T12:58:09.595Z,32.30
2018-07-14T13:00:38.108Z,34.70
2018-07-14T13:03:06.609Z,32.60
2018-07-14T13:05:35.002Z,32.30
2018-07-14T13:08:03.483Z,33.00
2018-07-14T13:10:31.999Z,32.30
2018-07-14T13:13:00.680Z,33.10
2018-07-14T13:15:29.676Z,33.20
2018-07-14T13:17:58.103Z,32.00
2018-07-14T13:20:26.535Z,32.80
2018-07-14T13:22:55.082Z,32.30
2018-07-14T13:25:23.404Z,32.40
2018-07-14T13:27:51.789Z,32.70
2018-07-14T13:30:20.184Z,33.60
2018-07-14T13:32:48.563Z,32.60
2018-07-14T13:35:16.989Z,33.00
2018-07-14T13:37:45.975Z,32.40
2018-07-14T13:40:14.478Z,32.00
2018-07-14T13:42:42.956Z,32.00
2018-07-14T13:45:15.089Z,31.30
2018-07-14T13:47:43.573Z,31.20
2018-07-14T13:50:12.053Z,31.50
2018-07-14T13:52:40.646Z,32.30
2018-07-14T13:55:09.153Z,32.60
2018-07-14T13:57:37.982Z,32.60
2018-07-14T14:00:07.241Z,32.40
2018-07-14T14:02:35.783Z,33.30
2018-07-14T14:05:04.543Z,33.20
2018-07-14T14:07:32.855Z,34.50
2018-07-14T14:10:01.283Z,34.20
2018-07-14T14:12:29.785Z,34.60
2018-07-14T14:14:58.151Z,33.50
2018-07-14T14:17:26.616Z,33.50
2018-07-14T14:19:54.972Z,33.90
2018-07-14T14:22:23.353Z,34.40
2018-07-14T14:24:51.681Z,34.00
2018-07-14T14:27:20.047Z,33.60
2018-07-14T14:29:48.522Z,33.70
2018-07-14T14:32:16.924Z,33.90
2018-07-14T14:34:45.474Z,33.30
2018-07-14T14:37:13.882Z,32.70
2018-07-14T14:39:42.287Z,32.80
2018-07-14T14:42:10.695Z,33.10
2018-07-14T14:44:39.157Z,32.10
2018-07-14T14:47:07.605Z,32.10
2018-07-14T14:49:35.981Z,32.10
2018-07-14T14:52:04.336Z,32.00
2018-07-14T14:54:32.716Z,31.30
2018-07-14T14:57:01.221Z,31.80
2018-07-14T14:59:29.677Z,31.70
2018-07-14T15:01:58.142Z,31.60
2018-07-14T15:04:26.600Z,32.50
2018-07-14T15:06:55.711Z,32.20
2018-07-14T15:09:24.089Z,32.20
2018-07-14T15:11:52.448Z,31.70
2018-07-14T15:14:20.868Z,31.80
2018-07-14T15:16:49.325Z,31.20
2018-07-14T15:19:17.882Z,30.40
2018-07-14T15:21:46.569Z,30.00
2018-07-14T15:24:14.993Z,30.00
2018-07-14T15:26:43.362Z,29.70
2018-07-14T15:29:11.864Z,29.70
2018-07-14T15:31:40.259Z,29.90
2018-07-14T15:34:08.655Z,30.10
2018-07-14T15:36:37.113Z,29.70
2018-07-14T15:39:08.688Z,30.20
2018-07-14T15:41:37.132Z,30.60
2018-07-14T15:46:33.887Z,31.00
2018-07-14T15:49:02.208Z,30.90
2018-07-14T15:51:30.553Z,30.30
2018-07-14T15:53:59.000Z,30.70
2018-07-14T15:56:27.444Z,30.30
2018-07-14T15:58:55.807Z,29.70
2018-07-14T16:01:24.263Z,30.00
2018-07-14T16:03:52.707Z,30.10
2018-07-14T16:06:21.172Z,30.00
2018-07-14T16:08:49.765Z,30.30
2018-07-14T16:11:18.210Z,30.30
2018-07-14T16:13:46.665Z,30.20
2018-07-14T16:16:15.115Z,30.40
2018-07-14T16:18:43.535Z,30.30
2018-07-14T16:21:12.799Z,30.90
2018-07-14T16:23:41.260Z,31.20
2018-07-14T16:26:09.717Z,32.20
2018-07-14T16:28:38.138Z,33.00
2018-07-14T16:31:06.873Z,33.00
2018-07-14T16:33:35.237Z,33.50
2018-07-14T16:36:03.579Z,33.50
2018-07-14T16:38:31.926Z,33.50
2018-07-14T16:41:00.410Z,34.00
2018-07-14T16:43:28.945Z,34.00
2018-07-14T16:45:57.263Z,34.30
2018-07-14T16:48:25.746Z,34.90
2018-07-14T16:50:54.189Z,35.00
2018-07-14T16:53:22.609Z,35.10
2018-07-14T16:55:51.031Z,35.00
2018-07-14T16:58:19.405Z,35.00
2018-07-14T17:00:47.851Z,34.10
2018-07-14T17:03:16.327Z,35.00
2018-07-14T17:05:44.707Z,35.10
2018-07-14T17:08:13.054Z,36.40
2018-07-14T17:10:41.477Z,36.40
2018-07-14T17:13:09.870Z,36.80
2018-07-14T17:15:38.191Z,37.10
2018-07-14T17:18:07.053Z,36.50
2018-07-14T17:20:35.394Z,36.80
2018-07-14T17:23:03.884Z,36.30
2018-07-14T17:25:32.261Z,37.00
2018-07-14T17:28:00.651Z,37.00
2018-07-14T17:30:29.023Z,37.60
2018-07-14T17:32:57.663Z,37.20
2018-07-14T17:35:26.026Z,37.20
2018-07-14T17:37:54.433Z,37.50
2018-07-14T17:40:22.847Z,37.40
2018-07-14T17:42:51.312Z,38.20
2018-07-14T17:45:19.770Z,38.50
2018-07-14T17:47:48.121Z,38.30
2018-07-14T17:50:16.522Z,38.10
2018-07-14T17:52:44.873Z,39.10
2018-07-14T17:55:13.415Z,38.80
2018-07-14T17:57:41.837Z,38.60
2018-07-14T18:00:10.255Z,38.50
2018-07-14T18:02:38.726Z,37.60
2018-07-14T18:05:07.096Z,39.00
2018-07-14T18:07:35.451Z,38.80
2018-07-14T18:10:03.859Z,38.40
2018-07-14T18:12:39.061Z,38.20
2018-07-14T18:15:07.590Z,38.70
2018-07-14T18:17:35.971Z,38.50
2018-07-14T18:20:04.490Z,38.60
2018-07-14T18:22:33.541Z,38.70
2018-07-14T18:25:01.905Z,38.90
2018-07-14T18:27:30.371Z,39.00
2018-07-14T18:29:58.742Z,39.90
2018-07-14T18:32:27.126Z,39.10
2018-07-14T18:34:55.470Z,39.30
2018-07-14T18:37:23.935Z,39.40
2018-07-14T18:39:52.309Z,39.30
2018-07-14T18:42:20.695Z,39.50
2018-07-14T18:44:49.136Z,39.40
2018-07-14T18:47:17.561Z,40.10
2018-07-14T18:52:14.280Z,40.80
2018-07-14T18:54:42.608Z,40.70
2018-07-14T18:57:11.047Z,40.70
2018-07-14T18:59:39.516Z,40.60
2018-07-14T19:02:08.004Z,40.60
2018-07-14T19:04:36.499Z,41.10
2018-07-14T19:07:05.094Z,41.60
2018-07-14T19:09:33.626Z,42.00
2018-07-14T19:12:02.051Z,42.20
2018-07-14T19:14:30.448Z,42.60
2018-07-14T19:16:58.904Z,42.90
2018-07-14T19:21:55.641Z,43.90
2018-07-14T19:24:24.042Z,44.30
2018-07-14T19:26:52.415Z,44.60
2018-07-14T19:31:49.102Z,44.90
2018-07-14T19:34:17.514Z,45.20
2018-07-14T19:36:46.013Z,45.20
2018-07-14T19:39:14.419Z,45.80
2018-07-14T19:41:42.820Z,46.10
2018-07-14T19:44:11.258Z,46.50
2018-07-14T19:46:39.662Z,46.70
2018-07-14T19:49:08.144Z,46.90
2018-07-14T19:51:36.526Z,47.10
2018-07-14T19:54:04.891Z,47.60
2018-07-14T19:56:33.281Z,47.70
2018-07-14T19:59:01.634Z,48.20
2018-07-14T20:01:30.044Z,48.90
2018-07-14T20:03:58.507Z,48.90
2018-07-14T20:06:26.903Z,48.80
2018-07-14T20:08:55.310Z,48.80
2018-07-14T20:11:23.666Z,48.80
2018-07-14T20:13:52.187Z,49.20
2018-07-14T20:16:20.641Z,49.50
2018-07-14T20:18:49.050Z,49.60
2018-07-14T20:21:17.419Z,50.00
2018-07-14T20:23:45.808Z,49.90
2018-07-14T20:26:14.250Z,50.20
2018-07-14T20:28:42.608Z,50.40
2018-07-14T20:31:11.087Z,50.70
2018-07-14T20:33:39.593Z,51.00
2018-07-14T20:36:07.990Z,51.10
2018-07-14T20:38:36.426Z,51.30
2018-07-14T20:41:05.026Z,51.40
2018-07-14T20:43:33.496Z,51.70
2018-07-14T20:46:01.907Z,52.10
2018-07-14T20:48:30.249Z,52.50
2018-07-14T20:50:58.600Z,52.70
2018-07-14T20:53:27.056Z,52.70
2018-07-14T20:55:55.560Z,52.90
2018-07-14T20:58:24.094Z,53.00
2018-07-14T21:00:52.578Z,53.30
2018-07-14T21:03:21.040Z,53.70
2018-07-14T21:05:49.494Z,54.00
2018-07-14T21:08:17.926Z,54.50
2018-07-14T21:10:46.346Z,54.60
2018-07-14T21:13:14.827Z,54.40
2018-07-14T21:15:43.239Z,54.60
2018-07-14T21:18:11.538Z,55.00
2018-07-14T21:20:40.032Z,54.80
2018-07-14T21:23:08.584Z,54.90
2018-07-14T21:25:36.927Z,54.60
2018-07-14T21:28:05.336Z,54.50
2018-07-14T21:30:33.647Z,54.50
2018-07-14T21:33:02.029Z,54.70
2018-07-14T21:35:30.428Z,55.10
2018-07-14T21:37:58.815Z,55.20
2018-07-14T21:40:27.297Z,55.20
2018-07-14T21:42:55.668Z,55.00
2018-07-14T21:45:24.074Z,55.20
2018-07-14T21:47:52.390Z,55.20
2018-07-14T21:50:20.795Z,55.60
2018-07-14T21:52:49.126Z,56.20
2018-07-14T21:55:17.544Z,56.10
2018-07-14T21:57:45.917Z,56.10
2018-07-14T22:00:32.650Z,56.10
2018-07-14T22:03:03.537Z,56.10
2018-07-14T22:08:00.299Z,55.90
2018-07-14T22:10:28.682Z,56.80
2018-07-14T22:12:57.105Z,57.10
2018-07-14T22:15:25.568Z,57.20
2018-07-14T22:17:53.943Z,57.10
2018-07-14T22:20:23.010Z,57.40
2018-07-14T22:22:51.581Z,57.60
2018-07-14T22:25:19.966Z,57.70
2018-07-14T22:27:48.265Z,57.70
2018-07-14T22:30:16.569Z,57.70
2018-07-14T22:32:45.071Z,57.40
2018-07-14T22:35:13.387Z,57.30
2018-07-14T22:37:41.773Z,57.40
2018-07-14T22:40:13.042Z,58.00
2018-07-14T22:42:41.426Z,58.70
2018-07-14T22:45:09.758Z,58.60
2018-07-14T22:47:38.133Z,58.50
2018-07-14T22:50:06.462Z,58.50
2018-07-14T22:52:34.858Z,58.70
2018-07-14T22:55:03.224Z,58.50
2018-07-14T22:57:31.619Z,58.60
2018-07-14T23:02:28.297Z,57.70
2018-07-14T23:04:56.596Z,57.40
2018-07-14T23:07:24.969Z,57.50
2018-07-14T23:09:53.314Z,57.90
2018-07-14T23:14:49.835Z,58.30
2018-07-14T23:17:18.146Z,58.50
2018-07-14T23:19:46.525Z,58.60
2018-07-14T23:22:14.892Z,58.70
2018-07-14T23:24:43.277Z,58.70
2018-07-14T23:27:11.716Z,59.00
2018-07-14T23:29:40.678Z,59.00
2018-07-14T23:32:09.053Z,59.10
2018-07-14T23:34:37.375Z,59.30
2018-07-14T23:37:05.893Z,59.40
2018-07-14T23:39:34.753Z,59.60
2018-07-14T23:42:03.120Z,59.40
2018-07-14T23:44:31.578Z,59.30
2018-07-14T23:46:59.932Z,59.20
2018-07-14T23:49:28.182Z,59.00
2018-07-14T23:51:56.561Z,59.40
2018-07-14T23:54:25.206Z,59.60
2018-07-14T23:56:53.793Z,59.80
2018-07-14T23:59:22.122Z,60.20
